Time;durP1;ratioP1;P1;durP2;ratioP2;P2;SDS_P1;SDS_P2;PMS_P1;PMS_P2;Temp;Humidity;BMP_temperature;BMP_pressure;BME280_temperature;BME280_humidity;BME280_pressure;Samples;Min_cycle;Max_cycle;Signal;HPM_P1;HPM_P2
2023/07/13 00:00:43;;;;;;;1.90;0.50;;;;;;;23.63;39.40;100021.75;10353728;28;20108;-62
2023/07/13 00:05:45;;;;;;;1.58;0.50;;;;;;;23.62;39.99;100022.81;10360942;28;20053;-62
2023/07/13 00:10:46;;;;;;;2.03;0.52;;;;;;;23.24;40.46;100020.81;10361035;28;20072;-63
2023/07/13 00:15:47;;;;;;;1.80;0.60;;;;;;;23.35;39.78;100041.06;10352341;28;20049;-63
2023/07/13 00:20:49;;;;;;;1.75;0.63;;;;;;;23.19;40.76;100034.19;10356232;28;20076;-62
2023/07/13 00:25:51;;;;;;;1.75;0.77;;;;;;;23.34;40.50;100036.69;10363242;28;20127;-63
2023/07/13 00:30:54;;;;;;;1.70;0.63;;;;;;;23.43;40.51;100032.69;10362488;28;20212;-65
2023/07/13 00:35:56;;;;;;;1.33;0.50;;;;;;;23.47;41.02;100031.22;10362305;28;20116;-63
2023/07/13 00:40:57;;;;;;;1.70;1.02;;;;;;;23.43;41.27;100032.69;10359286;28;20049;-64
2023/07/13 00:45:58;;;;;;;2.45;0.77;;;;;;;23.46;41.47;100049.41;10362329;28;20573;-63
2023/07/13 00:51:02;;;;;;;3.03;0.95;;;;;;;23.42;41.40;100044.59;10356446;28;20057;-63
2023/07/13 00:56:03;;;;;;;;;;;;;;;23.32;41.94;100055.06;10354109;28;20085;-62
2023/07/13 01:01:05;;;;;;;2.45;0.60;;;;;;;23.20;41.71;100047.56;10360963;28;19925;-62
2023/07/13 01:06:07;;;;;;;3.67;0.95;;;;;;;23.22;41.81;100056.31;10363010;28;20085;-63
2023/07/13 01:11:08;;;;;;;2.78;0.90;;;;;;;23.21;41.51;100051.09;10372193;28;20049;-63
2023/07/13 01:16:24;;;;;;;2.05;0.68;;;;;;;22.95;41.93;100060.91;10366994;28;20048;-63
2023/07/13 01:21:28;;;;;;;1.98;0.73;;;;;;;22.97;41.95;100049.84;10366775;28;20067;-63
2023/07/13 01:26:29;;;;;;;;;;;;;;;22.93;42.50;100047.56;10365562;28;20107;-64
2023/07/13 01:31:30;;;;;;;1.67;0.82;;;;;;;22.96;42.71;100043.59;10365273;28;19964;-64
2023/07/13 01:36:32;;;;;;;2.25;0.70;;;;;;;22.92;41.95;100029.63;10361318;28;20141;-63
2023/07/13 01:41:34;;;;;;;1.30;0.60;;;;;;;22.87;41.01;100023.97;10364342;28;20045;-64
2023/07/13 01:46:35;;;;;;;2.20;0.50;;;;;;;22.86;41.50;100040.47;10362082;28;20053;-63
2023/07/13 01:51:37;;;;;;;4.90;0.70;;;;;;;22.74;41.85;100048.41;10366000;28;20056;-63
2023/07/13 01:56:39;;;;;;;2.55;0.77;;;;;;;22.29;41.64;100039.97;10368994;28;20050;-63
2023/07/13 02:01:41;;;;;;;1.90;0.63;;;;;;;22.31;42.51;100043.31;10369122;28;20057;-63
2023/07/13 02:06:42;;;;;;;4.82;0.40;;;;;;;22.23;42.21;100019.94;10360493;28;20353;-63
2023/07/13 02:11:44;;;;;;;4.43;0.52;;;;;;;22.46;42.65;100045.88;10361027;28;20061;-62
2023/07/13 02:16:45;;;;;;;3.30;0.70;;;;;;;22.37;42.59;100053.41;10367983;28;20077;-62
2023/07/13 02:21:46;;;;;;;3.30;0.70;;;;;;;22.46;42.43;100062.16;10371455;28;20472;-62
2023/07/13 02:26:48;;;;;;;2.58;0.60;;;;;;;22.37;42.58;100054.22;10367011;28;20053;-63
2023/07/13 02:31:49;;;;;;;2.60;0.52;;;;;;;22.42;42.92;100059.03;10362216;28;20046;-62
2023/07/13 02:36:51;;;;;;;1.90;0.50;;;;;;;22.35;42.57;100060.88;10364010;28;20123;-63
2023/07/13 02:41:52;;;;;;;3.33;0.40;;;;;;;22.35;42.88;100061.72;10361548;28;20104;-64
2023/07/13 02:46:53;;;;;;;2.35;0.90;;;;;;;22.35;42.78;100066.31;10364343;28;20050;-64
2023/07/13 02:51:55;;;;;;;1.52;0.43;;;;;;;22.35;43.28;100079.84;10360284;28;20062;-63
2023/07/13 02:56:56;;;;;;;4.38;0.60;;;;;;;22.33;42.58;100074.66;10364158;28;20075;-62
2023/07/13 03:01:58;;;;;;;2.63;0.70;;;;;;;22.32;42.61;100089.22;10360862;28;20133;-61
2023/07/13 03:06:59;;;;;;;2.05;0.60;;;;;;;22.28;41.67;100084.38;10366263;28;20061;-62
2023/07/13 03:12:01;;;;;;;2.65;0.43;;;;;;;22.24;41.67;100092.94;10359472;28;20077;-65
2023/07/13 03:17:02;;;;;;;1.65;0.57;;;;;;;22.23;41.48;100096.72;10360178;28;20050;-63
2023/07/13 03:22:04;;;;;;;3.88;0.52;;;;;;;22.12;41.40;100096.47;10359122;28;20123;-63
2023/07/13 03:27:06;;;;;;;1.15;0.45;;;;;;;22.13;41.46;100096.25;10363010;28;20670;-63
2023/07/13 03:32:08;;;;;;;2.05;0.65;;;;;;;22.06;42.30;100109.75;10362112;28;20103;-63
2023/07/13 03:37:09;;;;;;;1.35;0.30;;;;;;;22.03;41.41;100115.59;10364639;28;20100;-63
2023/07/13 03:42:11;;;;;;;3.70;1.50;;;;;;;21.65;41.69;100082.72;10358726;28;20073;-63
2023/07/13 03:47:12;;;;;;;1.83;0.45;;;;;;;21.93;41.39;100122.44;10360603;28;20103;-63
2023/07/13 03:52:13;;;;;;;2.40;0.63;;;;;;;21.91;41.81;100133.47;10358863;28;20119;-63
2023/07/13 03:57:15;;;;;;;2.60;0.88;;;;;;;21.81;41.79;100128.44;10366088;28;20049;-62
2023/07/13 04:02:17;;;;;;;1.20;0.50;;;;;;;21.87;41.94;100135.75;10360220;28;20053;-63
2023/07/13 04:07:19;;;;;;;2.00;0.57;;;;;;;21.93;41.82;100134.09;10352795;28;20060;-61
2023/07/13 04:12:20;;;;;;;4.85;0.60;;;;;;;21.87;43.32;100130.34;10359561;28;20061;-63
2023/07/13 04:17:21;;;;;;;3.15;0.77;;;;;;;21.82;43.31;100126.53;10359836;28;20058;-64
2023/07/13 04:22:23;;;;;;;2.40;0.50;;;;;;;21.70;42.89;100129.81;10359083;28;20300;-62
2023/07/13 04:27:25;;;;;;;2.67;0.68;;;;;;;21.80;44.16;100144.84;10364630;28;20060;-63
2023/07/13 04:32:26;;;;;;;2.42;0.47;;;;;;;21.75;44.12;100148.16;10361762;28;20045;-62
2023/07/13 04:37:29;;;;;;;2.85;1.00;;;;;;;21.68;43.62;100137.31;10365063;28;20077;-62
2023/07/13 04:42:30;;;;;;;3.27;0.63;;;;;;;21.69;44.40;100135.41;10373079;28;20049;-62
2023/07/13 04:47:32;;;;;;;3.60;0.60;;;;;;;21.78;43.44;100136.94;10369333;28;20105;-62
2023/07/13 04:52:34;;;;;;;2.38;1.08;;;;;;;21.80;43.87;100150.28;10374182;28;20695;-63
2023/07/13 04:57:35;;;;;;;3.40;0.85;;;;;;;21.80;43.33;100137.59;10370814;28;20053;-62
2023/07/13 05:02:38;;;;;;;2.85;0.68;;;;;;;21.81;44.04;100138.41;10364467;28;20600;-62
2023/07/13 05:07:39;;;;;;;2.23;0.50;;;;;;;21.63;43.06;100126.25;10370213;28;20096;-64
2023/07/13 05:12:41;;;;;;;1.38;0.30;;;;;;;21.70;42.22;100142.53;10361852;28;20083;-63
2023/07/13 05:17:43;;;;;;;3.03;0.60;;;;;;;21.65;43.29;100142.28;10361724;28;20833;-64
2023/07/13 05:22:46;;;;;;;4.20;0.50;;;;;;;21.61;42.61;100143.72;10349004;28;20057;-67
2023/07/13 05:27:48;;;;;;;1.90;0.50;;;;;;;21.65;41.68;100142.28;10355510;28;20211;-64
2023/07/13 05:32:50;;;;;;;1.73;0.50;;;;;;;21.64;41.09;100154.97;10358217;28;20136;-62
2023/07/13 05:37:51;;;;;;;4.07;0.57;;;;;;;21.62;42.45;100150.78;10358421;28;20166;-64
2023/07/13 05:42:53;;;;;;;3.05;0.50;;;;;;;21.78;40.88;100158.59;10357247;28;20203;-67
2023/07/13 05:47:54;;;;;;;3.00;0.45;;;;;;;21.61;40.85;100147.25;10358830;28;20041;-65
2023/07/13 05:52:56;;;;;;;1.10;0.35;;;;;;;21.78;42.44;100164.03;10361746;28;20053;-65
2023/07/13 05:57:58;;;;;;;2.65;0.30;;;;;;;21.80;41.13;100167.38;10355569;28;20053;-66
2023/07/13 06:02:59;;;;;;;2.33;0.40;;;;;;;21.82;41.14;100176.13;10354439;28;20256;-64
2023/07/13 06:08:01;;;;;;;3.33;0.68;;;;;;;21.89;41.03;100182.44;10358472;28;20060;-64
2023/07/13 06:13:03;;;;;;;2.17;0.35;;;;;;;21.75;40.45;100179.84;10354411;28;20053;-67
2023/07/13 06:18:04;;;;;;;1.90;0.40;;;;;;;21.84;41.25;100184.91;10347048;28;20061;-66
2023/07/13 06:23:06;;;;;;;1.15;0.40;;;;;;;22.04;40.95;100184.19;10349433;28;20053;-65
2023/07/13 06:28:07;;;;;;;2.78;0.40;;;;;;;22.01;41.02;100195.44;10350511;28;20068;-65
2023/07/13 06:33:08;;;;;;;0.73;0.30;;;;;;;22.10;41.07;100204.22;10351189;28;20065;-64
2023/07/13 06:38:10;;;;;;;1.70;0.47;;;;;;;21.97;40.85;100189.56;10352280;28;20061;-64
2023/07/13 06:43:11;;;;;;;4.07;0.90;;;;;;;22.07;41.36;100198.19;10355419;28;20124;-64
2023/07/13 06:48:14;;;;;;;3.08;0.80;;;;;;;22.30;41.70;100198.91;10352895;28;20193;-65
2023/07/13 06:53:18;;;;;;;1.13;0.50;;;;;;;22.47;40.63;100205.66;10351685;28;20463;-63
2023/07/13 06:58:19;;;;;;;2.10;0.40;;;;;;;22.42;40.22;100181.88;10349645;28;20070;-64
2023/07/13 07:03:21;;;;;;;3.45;0.52;;;;;;;22.51;40.52;100206.94;10349444;28;20053;-65
2023/07/13 07:08:22;;;;;;;1.40;0.22;;;;;;;22.43;40.73;100201.72;10356535;28;20056;-64
2023/07/13 07:13:24;;;;;;;3.25;0.47;;;;;;;22.58;40.52;100196.97;10359650;28;20124;-64
2023/07/13 07:18:25;;;;;;;2.03;0.43;;;;;;;22.81;40.36;100203.09;10347024;28;20052;-65
2023/07/13 07:23:27;;;;;;;2.63;0.90;;;;;;;22.91;40.38;100217.91;10347915;28;20053;-67
2023/07/13 07:28:29;;;;;;;2.47;0.60;;;;;;;22.88;40.56;100206.63;10347461;28;20046;-65
2023/07/13 07:33:43;;;;;;;3.85;0.65;;;;;;;23.11;40.04;100212.53;10350649;28;20056;-65
2023/07/13 07:38:44;;;;;;;3.25;0.55;;;;;;;23.16;39.62;100211.09;10348456;28;20057;-65
2023/07/13 07:43:46;;;;;;;2.28;0.40;;;;;;;23.37;37.95;100212.78;10347276;28;20053;-69
2023/07/13 07:48:47;;;;;;;2.17;0.52;;;;;;;23.48;37.12;100220.31;10350285;28;20435;-65
2023/07/13 07:53:49;;;;;;;1.65;0.32;;;;;;;23.51;37.41;100206.31;10348841;28;20058;-64
2023/07/13 07:58:50;;;;;;;2.72;0.70;;;;;;;23.52;37.06;100210.69;10348111;28;20056;-65
2023/07/13 08:03:55;;;;;;;2.17;0.30;;;;;;;23.59;37.77;100213.41;10345841;28;20061;-67
2023/07/13 08:09:01;;;;;;;1.10;0.40;;;;;;;23.87;37.68;100215.91;10347407;28;20045;-64
2023/07/13 08:14:03;;;;;;;2.17;0.30;;;;;;;23.91;35.50;100222.56;10352211;28;20044;-65
2023/07/13 08:19:05;;;;;;;1.48;0.40;;;;;;;23.78;35.27;100228.00;10352907;28;20188;-63
2023/07/13 08:24:07;;;;;;;1.80;0.50;;;;;;;23.85;36.17;100208.97;10355973;28;20572;-64
2023/07/13 08:29:09;;;;;;;0.70;0.25;;;;;;;24.00;36.97;100221.31;10354396;28;21630;-64
2023/07/13 08:34:10;;;;;;;2.20;0.65;;;;;;;24.16;36.16;100214.56;10352874;28;20140;-64
2023/07/13 08:39:11;;;;;;;1.23;0.50;;;;;;;24.13;35.84;100215.00;10353352;28;20069;-63
2023/07/13 08:44:22;;;;;;;5.35;1.27;;;;;;;24.21;36.17;100215.81;10355448;28;20162;-64
2023/07/13 08:49:24;;;;;;;2.47;0.40;;;;;;;24.27;35.04;100199.47;10350442;28;20061;-64
2023/07/13 08:54:28;;;;;;;1.97;0.40;;;;;;;24.46;35.36;100218.66;10352364;28;20266;-65
2023/07/13 08:59:33;;;;;;;3.35;0.30;;;;;;;24.48;34.27;100203.75;10356421;28;20535;-65
2023/07/13 09:04:50;;;;;;;2.42;0.40;;;;;;;24.81;34.56;100202.78;10350669;28;20468;-64
2023/07/13 09:10:08;;;;;;;1.67;0.30;;;;;;;24.96;33.22;100213.38;10355729;28;20252;-65
2023/07/13 09:15:37;;;;;;;2.05;0.40;;;;;;;24.96;32.86;100226.16;10352891;28;20053;-64
2023/07/13 09:20:46;;;;;;;1.58;0.40;;;;;;;24.85;33.91;100212.19;10352502;28;20042;-64
2023/07/13 09:25:55;;;;;;;2.47;0.50;;;;;;;24.91;33.17;100215.94;10354026;28;20053;-64
2023/07/13 09:31:12;;;;;;;1.55;0.30;;;;;;;24.83;32.84;100191.69;10352459;28;20488;-64
2023/07/13 09:36:14;;;;;;;1.63;0.32;;;;;;;25.30;32.96;100197.66;10348724;28;20057;-64
2023/07/13 09:41:28;;;;;;;2.53;0.30;;;;;;;25.68;32.22;100207.59;10353460;28;20927;-63
2023/07/13 09:46:30;;;;;;;1.45;0.25;;;;;;;25.82;32.42;100210.19;10349553;28;20062;-64
2023/07/13 09:51:31;;;;;;;1.77;0.70;;;;;;;25.81;31.57;100209.38;10348280;28;20201;-64
2023/07/13 09:56:33;;;;;;;2.28;0.50;;;;;;;25.90;32.03;100207.19;10347652;28;20063;-63
2023/07/13 10:01:37;;;;;;;2.28;0.22;;;;;;;25.71;31.93;100204.41;10348711;28;20058;-65
2023/07/13 10:06:43;;;;;;;2.45;0.75;;;;;;;25.77;31.95;100202.69;10350507;28;20049;-63
2023/07/13 10:11:45;;;;;;;0.95;0.30;;;;;;;26.02;30.99;100210.03;10352601;28;20427;-66
2023/07/13 10:16:46;;;;;;;2.00;0.40;;;;;;;26.09;31.30;100205.31;10354897;28;20049;-67
2023/07/13 10:22:00;;;;;;;1.70;0.43;;;;;;;25.91;31.27;100197.94;10353012;28;20156;-65
2023/07/13 10:27:19;;;;;;;0.70;0.30;;;;;;;26.03;31.83;100196.16;10346269;28;20050;-66
2023/07/13 10:32:24;;;;;;;1.27;0.40;;;;;;;26.18;31.13;100198.50;10346612;28;20057;-67
2023/07/13 10:37:30;;;;;;;2.00;0.30;;;;;;;26.19;30.98;100204.78;10354072;28;20551;-66
2023/07/13 10:42:37;;;;;;;0.95;0.20;;;;;;;26.36;31.93;100203.13;10350454;28;20064;-66
2023/07/13 10:47:39;;;;;;;2.10;0.30;;;;;;;26.38;30.84;100202.91;10349580;28;20052;-66
2023/07/13 10:52:50;;;;;;;3.20;0.60;;;;;;;26.48;30.80;100205.06;10349579;28;20045;-70
2023/07/13 10:57:51;;;;;;;1.65;0.40;;;;;;;26.56;30.47;100182.94;10354148;28;20341;-69
2023/07/13 11:03:00;;;;;;;1.67;0.60;;;;;;;26.41;29.36;100216.91;10358587;28;20132;-65
2023/07/13 11:08:32;;;;;;;1.77;0.40;;;;;;;26.21;30.11;100208.97;10350391;28;20401;-68
2023/07/13 11:13:47;;;;;;;2.15;0.75;;;;;;;26.26;29.38;100205.56;10349326;28;20045;-67
2023/07/13 11:18:51;;;;;;;1.25;0.40;;;;;;;26.07;30.46;100181.00;10348073;28;20420;-69
2023/07/13 11:24:01;;;;;;;3.50;1.10;;;;;;;26.43;29.85;100190.19;10346886;28;20052;-67
2023/07/13 11:29:39;;;;;;;2.00;0.68;;;;;;;26.84;28.91;100190.50;10350546;28;20077;-67
2023/07/13 11:34:41;;;;;;;4.30;0.65;;;;;;;27.09;29.47;100193.06;10352220;28;20053;-67
2023/07/13 11:39:46;;;;;;;1.23;0.40;;;;;;;27.03;28.89;100194.03;10359582;28;20054;-68
2023/07/13 11:44:50;;;;;;;1.20;0.40;;;;;;;26.50;28.97;100189.28;10352038;28;21174;-67
2023/07/13 11:50:20;;;;;;;1.38;0.30;;;;;;;26.60;28.70;100187.69;10349917;28;20060;-67
2023/07/13 11:55:24;;;;;;;1.63;0.43;;;;;;;26.74;28.15;100185.63;10348857;28;20060;-67
2023/07/13 12:00:28;;;;;;;1.30;0.38;;;;;;;26.57;28.77;100185.41;10347978;28;20056;-66
2023/07/13 12:05:32;;;;;;;2.63;0.57;;;;;;;26.20;29.77;100169.09;10347734;28;20049;-70
2023/07/13 12:10:33;;;;;;;0.87;0.50;;;;;;;26.06;29.64;100167.59;10347425;28;20053;-70
2023/07/13 12:15:38;;;;;;;1.77;0.63;;;;;;;26.03;29.57;100187.13;10345670;28;20041;-70
2023/07/13 12:20:39;;;;;;;1.13;0.50;;;;;;;26.25;29.79;100190.22;10356510;28;20045;-69
2023/07/13 12:25:40;;;;;;;1.40;0.60;;;;;;;26.28;29.43;100185.16;10341387;28;20050;-68
2023/07/13 12:30:48;;;;;;;2.28;0.52;;;;;;;26.17;29.66;100196.84;10342520;28;20057;-69
2023/07/13 12:35:52;;;;;;;4.20;0.50;;;;;;;25.89;29.96;100183.69;10344219;28;20054;-69
2023/07/13 12:40:54;;;;;;;3.03;0.60;;;;;;;25.86;30.31;100195.06;10343656;28;20366;-69
2023/07/13 12:45:58;;;;;;;2.97;0.47;;;;;;;25.94;30.52;100208.38;10345538;28;20587;-68
2023/07/13 12:51:01;;;;;;;2.08;0.50;;;;;;;25.83;31.05;100184.59;10346103;28;20458;-69
2023/07/13 12:56:04;;;;;;;2.47;0.40;;;;;;;25.97;30.03;100202.47;10341729;28;20057;-70
2023/07/13 13:01:05;;;;;;;1.30;0.75;;;;;;;25.94;30.66;100209.22;10353237;28;20065;-70
2023/07/13 13:06:16;;;;;;;1.45;0.57;;;;;;;25.99;30.41;100210.47;10351459;28;20050;-70
2023/07/13 13:11:19;;;;;;;1.75;0.30;;;;;;;25.86;30.89;100212.25;10353680;28;20622;-70
2023/07/13 13:16:32;;;;;;;2.25;0.40;;;;;;;25.80;30.38;100212.31;10349430;28;20045;-69
2023/07/13 13:21:33;;;;;;;2.25;0.77;;;;;;;25.80;30.78;100209.59;10344899;28;20220;-70
2023/07/13 13:26:35;;;;;;;2.10;0.70;;;;;;;25.88;31.38;100209.28;10352277;28;20054;-65
2023/07/13 13:31:36;;;;;;;1.50;0.40;;;;;;;26.10;30.70;100207.81;10348985;28;20064;-65
2023/07/13 13:36:38;;;;;;;3.25;0.40;;;;;;;26.16;29.95;100211.53;10351378;28;20207;-65
2023/07/13 13:41:39;;;;;;;1.45;0.50;;;;;;;26.18;30.06;100214.88;10351898;28;20424;-65
2023/07/13 13:46:42;;;;;;;1.45;0.40;;;;;;;26.28;29.94;100230.69;10348906;28;20080;-65
2023/07/13 13:51:44;;;;;;;3.65;0.60;;;;;;;26.12;29.58;100226.66;10349247;28;20144;-68
2023/07/13 13:56:48;;;;;;;1.42;0.95;;;;;;;26.07;29.73;100219.19;10348478;28;20057;-69
2023/07/13 14:01:50;;;;;;;3.30;0.80;;;;;;;26.05;30.82;100226.75;10350297;28;20684;-69
2023/07/13 14:06:52;;;;;;;1.07;0.23;;;;;;;26.07;30.99;100232.81;10347410;28;20137;-69
2023/07/13 14:11:54;;;;;;;1.73;0.60;;;;;;;26.12;30.50;100232.13;10347280;28;20105;-70
2023/07/13 14:16:56;;;;;;;2.83;0.43;;;;;;;26.10;30.00;100235.09;10350946;28;21011;-68
2023/07/13 14:21:57;;;;;;;0.93;0.30;;;;;;;26.14;30.04;100207.34;10348398;28;20054;-69
2023/07/13 14:26:59;;;;;;;2.58;0.45;;;;;;;26.09;30.32;100219.81;10345145;28;20068;-68
2023/07/13 14:32:01;;;;;;;2.75;0.77;;;;;;;26.16;31.01;100233.34;10347413;28;20083;-67
2023/07/13 14:37:04;;;;;;;1.55;0.20;;;;;;;25.81;31.66;100224.91;10346741;28;20167;-68
2023/07/13 14:42:05;;;;;;;1.65;0.40;;;;;;;25.60;32.41;100229.69;10347924;28;20131;-67
2023/07/13 14:47:07;;;;;;;1.88;0.50;;;;;;;25.43;32.23;100245.75;10349064;28;21481;-68
2023/07/13 14:52:13;;;;;;;1.23;0.30;;;;;;;25.37;32.48;100257.53;10343547;28;20191;-67
2023/07/13 14:57:18;;;;;;;3.75;0.57;;;;;;;25.50;32.51;100251.16;10346051;28;20085;-66
2023/07/13 15:02:29;;;;;;;1.13;0.40;;;;;;;25.55;32.31;100251.31;10360670;28;20464;-67
2023/07/13 15:07:32;;;;;;;1.55;0.30;;;;;;;25.65;32.01;100243.47;10369832;28;20512;-67
2023/07/13 15:12:34;;;;;;;;;;;;;;;25.56;32.14;100244.81;10346365;28;20056;-67
2023/07/13 15:17:41;;;;;;;1.80;0.40;;;;;;;25.48;32.38;100245.09;10354400;28;19953;-67
2023/07/13 15:22:43;;;;;;;2.50;0.43;;;;;;;25.50;32.03;100235.63;10350422;28;20060;-67
2023/07/13 15:27:44;;;;;;;2.50;0.45;;;;;;;25.46;32.47;100255.38;10347600;28;20649;-65
2023/07/13 15:32:46;;;;;;;1.55;0.60;;;;;;;25.34;32.03;100247.94;10348620;28;20053;-66
2023/07/13 15:37:49;;;;;;;1.43;0.30;;;;;;;25.45;32.23;100251.00;10345144;28;20536;-66
2023/07/13 15:42:52;;;;;;;;;;;;;;;25.45;32.05;100249.09;10360258;28;20329;-66
2023/07/13 15:47:53;;;;;;;3.53;0.60;;;;;;;25.56;32.02;100253.00;10344976;28;19983;-66
2023/07/13 15:52:58;;;;;;;1.63;0.47;;;;;;;25.46;31.83;100239.03;10363595;28;20041;-65
2023/07/13 15:58:00;;;;;;;0.95;0.38;;;;;;;25.33;31.67;100232.63;10350894;28;20108;-65
2023/07/13 16:03:01;;;;;;;1.93;0.40;;;;;;;25.46;31.40;100247.19;10347772;28;20059;-66
2023/07/13 16:08:05;;;;;;;1.25;0.50;;;;;;;25.58;32.29;100237.25;10353396;28;20127;-66
2023/07/13 16:13:25;;;;;;;1.33;0.30;;;;;;;25.53;31.57;100239.81;10344693;28;20461;-67
2023/07/13 16:18:27;;;;;;;1.00;0.40;;;;;;;25.52;31.69;100232.69;10355613;28;20041;-65
2023/07/13 16:23:31;;;;;;;1.33;0.43;;;;;;;25.45;31.38;100238.19;10353826;28;20056;-65
2023/07/13 16:28:34;;;;;;;4.35;0.50;;;;;;;25.34;31.87;100245.22;10351067;28;20380;-65
2023/07/13 16:33:35;;;;;;;1.38;0.70;;;;;;;25.52;32.35;100221.78;10360956;28;20057;-66
2023/07/13 16:38:37;;;;;;;1.38;0.30;;;;;;;25.69;31.90;100228.34;10360319;28;20688;-66
2023/07/13 16:43:39;;;;;;;1.67;0.32;;;;;;;25.70;31.81;100223.72;10359897;28;20065;-65
2023/07/13 16:48:41;;;;;;;1.33;0.45;;;;;;;25.61;31.43;100242.25;10361076;28;20049;-65
2023/07/13 16:53:44;;;;;;;1.45;0.50;;;;;;;25.57;31.26;100241.03;10359055;28;20148;-66
2023/07/13 16:58:46;;;;;;;1.65;0.55;;;;;;;25.39;31.22;100231.75;10359144;28;20050;-65
2023/07/13 17:03:48;;;;;;;3.42;0.65;;;;;;;25.44;31.43;100230.25;10362743;28;20081;-65
2023/07/13 17:08:54;;;;;;;2.17;0.70;;;;;;;25.45;30.97;100242.84;10359054;28;20060;-65
2023/07/13 17:13:55;;;;;;;1.08;0.30;;;;;;;25.29;31.38;100217.75;10357635;28;20053;-65
2023/07/13 17:18:58;;;;;;;2.17;0.82;;;;;;;25.39;31.43;100244.53;10357659;28;20684;-65
2023/07/13 17:24:00;;;;;;;1.48;0.52;;;;;;;25.34;31.73;100230.75;10350130;28;20050;-65
2023/07/13 17:29:01;;;;;;;0.57;0.22;;;;;;;25.41;31.21;100237.78;10363677;28;20054;-65
2023/07/13 17:34:05;;;;;;;0.90;0.55;;;;;;;25.19;31.19;100234.59;10359685;28;20056;-65
2023/07/13 17:39:16;;;;;;;1.92;0.45;;;;;;;25.14;31.80;100236.31;10358836;28;20053;-66
2023/07/13 17:44:18;;;;;;;1.60;0.50;;;;;;;25.26;32.40;100242.72;10358607;28;20385;-66
2023/07/13 17:49:30;;;;;;;1.13;0.40;;;;;;;25.19;31.92;100239.19;10363367;28;20053;-66
2023/07/13 17:54:33;;;;;;;2.73;0.60;;;;;;;24.97;31.99;100236.84;10360244;28;20045;-66
2023/07/13 17:59:34;;;;;;;2.50;0.90;;;;;;;25.01;32.03;100243.53;10362350;28;20792;-65
2023/07/13 18:04:37;;;;;;;1.30;0.70;;;;;;;24.86;32.22;100245.69;10360063;28;20131;-65
2023/07/13 18:09:45;;;;;;;1.55;0.63;;;;;;;24.75;32.31;100232.78;10363806;28;20615;-66
2023/07/13 18:14:47;;;;;;;1.50;0.80;;;;;;;24.52;32.48;100210.44;10355672;28;20679;-65
2023/07/13 18:19:50;;;;;;;1.70;0.43;;;;;;;24.64;32.64;100256.91;10362245;28;20481;-65
2023/07/13 18:24:52;;;;;;;;;;;;;;;24.66;32.94;100256.69;10361662;28;20605;-65
2023/07/13 18:29:55;;;;;;;2.00;0.75;;;;;;;24.76;33.53;100256.22;10346274;28;20000;-66
2023/07/13 18:34:57;;;;;;;1.95;0.40;;;;;;;24.80;33.89;100252.00;10349621;28;22020;-65
2023/07/13 18:40:02;;;;;;;3.55;0.68;;;;;;;24.64;33.32;100235.13;10351721;28;21363;-66
2023/07/13 18:45:04;;;;;;;1.83;0.55;;;;;;;24.63;33.46;100263.38;10334438;28;20046;-66
2023/07/13 18:50:27;;;;;;;1.03;0.27;;;;;;;24.48;33.81;100243.75;10358212;28;20168;-65
2023/07/13 18:55:28;;;;;;;2.25;0.60;;;;;;;24.50;33.40;100253.38;10356427;28;20068;-66
2023/07/13 19:00:30;;;;;;;1.60;0.60;;;;;;;24.34;34.06;100240.25;10356787;28;20053;-65
2023/07/13 19:05:34;;;;;;;1.38;0.60;;;;;;;24.38;33.57;100254.25;10363039;28;20045;-66
2023/07/13 19:10:54;;;;;;;2.08;0.60;;;;;;;24.29;33.64;100261.81;10357957;28;20041;-68
2023/07/13 19:15:56;;;;;;;1.23;0.80;;;;;;;24.20;33.98;100263.94;10352794;28;20084;-66
2023/07/13 19:21:02;;;;;;;2.30;0.60;;;;;;;24.26;34.45;100267.66;10358633;28;20096;-66
2023/07/13 19:26:17;;;;;;;1.75;1.10;;;;;;;24.24;34.35;100276.03;10359762;28;20054;-64
2023/07/13 19:31:23;;;;;;;1.73;0.63;;;;;;;24.17;35.15;100286.13;10353788;28;20060;-64
2023/07/13 19:36:26;;;;;;;1.42;0.80;;;;;;;24.19;35.14;100289.44;10358165;28;20554;-65
2023/07/13 19:41:28;;;;;;;3.07;0.90;;;;;;;23.94;34.82;100268.34;10362445;28;20120;-65
2023/07/13 19:46:33;;;;;;;2.53;1.37;;;;;;;24.08;35.25;100288.22;10356089;28;20092;-65
2023/07/13 19:51:35;;;;;;;1.60;0.88;;;;;;;24.00;35.76;100292.00;10354952;28;20052;-65
2023/07/13 19:56:37;;;;;;;2.55;1.30;;;;;;;24.05;35.99;100309.53;10353364;28;20654;-65
2023/07/13 20:01:38;;;;;;;2.45;0.95;;;;;;;23.90;36.35;100299.75;10356112;28;20047;-64
2023/07/13 20:06:40;;;;;;;1.83;1.25;;;;;;;23.92;37.12;100315.84;10354749;28;20546;-65
2023/07/13 20:11:42;;;;;;;2.50;1.10;;;;;;;23.93;36.27;100318.34;10356431;28;20147;-64
2023/07/13 20:16:44;;;;;;;3.17;1.38;;;;;;;23.89;37.43;100327.97;10350363;28;20045;-65
2023/07/13 20:21:45;;;;;;;2.50;1.10;;;;;;;23.80;37.56;100323.75;10356694;28;20057;-65
2023/07/13 20:26:48;;;;;;;2.30;1.27;;;;;;;23.84;37.13;100335.88;10357427;28;20041;-65
2023/07/13 20:31:49;;;;;;;3.47;1.10;;;;;;;23.79;37.76;100327.50;10354786;28;20058;-65
2023/07/13 20:36:53;;;;;;;4.13;1.20;;;;;;;23.90;38.25;100350.53;10352072;28;20521;-66
2023/07/13 20:41:54;;;;;;;6.85;1.90;;;;;;;23.82;38.54;100355.13;10355855;28;20072;-64
2023/07/13 20:46:56;;;;;;;2.78;1.38;;;;;;;23.74;37.73;100346.34;10350697;28;20064;-65
2023/07/13 20:51:58;;;;;;;4.70;1.80;;;;;;;23.56;37.94;100328.75;10355425;28;20424;-67
2023/07/13 20:56:59;;;;;;;1.67;1.17;;;;;;;23.67;38.56;100353.63;10351637;28;20057;-65
2023/07/13 21:02:01;;;;;;;4.90;2.22;;;;;;;23.54;38.97;100347.16;10353347;28;20053;-66
2023/07/13 21:07:02;;;;;;;6.15;4.10;;;;;;;23.52;39.15;100349.22;10354823;28;20083;-63
2023/07/13 21:12:04;;;;;;;4.63;2.95;;;;;;;23.56;39.08;100355.09;10354331;28;20061;-65
2023/07/13 21:17:12;;;;;;;4.80;3.10;;;;;;;23.53;39.36;100352.78;10357443;28;20108;-66
2023/07/13 21:22:15;;;;;;;7.60;3.85;;;;;;;23.42;38.93;100343.34;10363698;28;20056;-63
2023/07/13 21:27:16;;;;;;;5.68;5.07;;;;;;;23.24;39.43;100325.78;10362631;28;20058;-65
2023/07/13 21:32:22;;;;;;;6.93;5.60;;;;;;;23.41;39.12;100358.81;10367624;28;20134;-63
2023/07/13 21:37:24;;;;;;;4.35;3.88;;;;;;;23.26;38.00;100356.25;10375542;28;20049;-64
2023/07/13 21:42:26;;;;;;;7.65;4.75;;;;;;;23.04;39.15;100354.69;10366491;28;20042;-64
2023/07/13 21:47:27;;;;;;;8.30;7.18;;;;;;;23.21;39.52;100380.50;10360459;28;20064;-64
2023/07/13 21:52:29;;;;;;;5.82;5.00;;;;;;;23.20;39.51;100388.84;10367932;28;20045;-63
2023/07/13 21:57:30;;;;;;;5.80;4.25;;;;;;;23.12;39.07;100392.56;10358306;28;20056;-63
2023/07/13 22:02:32;;;;;;;5.60;4.10;;;;;;;23.12;39.48;100398.00;10363426;28;20046;-67
2023/07/13 22:07:34;;;;;;;4.50;1.85;;;;;;;23.08;39.28;100383.13;10364213;28;20065;-63
2023/07/13 22:12:35;;;;;;;3.60;1.55;;;;;;;23.04;39.30;100384.56;10361096;28;20057;-65
2023/07/13 22:17:45;;;;;;;2.80;1.52;;;;;;;23.02;39.67;100395.63;10358543;28;20052;-65
2023/07/13 22:22:48;;;;;;;2.30;1.10;;;;;;;22.97;39.57;100400.84;10357795;28;20128;-66
2023/07/13 22:27:49;;;;;;;1.83;0.98;;;;;;;22.94;39.33;100402.06;10364172;28;20172;-64
2023/07/13 22:32:54;;;;;;;2.00;0.98;;;;;;;22.77;39.69;100417.00;10357750;28;20293;-64
2023/07/13 22:37:58;;;;;;;2.58;1.17;;;;;;;22.75;39.66;100419.06;10357626;28;20782;-64
2023/07/13 22:43:00;;;;;;;1.88;1.00;;;;;;;22.60;40.08;100408.34;10357594;28;20049;-65
2023/07/13 22:48:01;;;;;;;1.70;0.77;;;;;;;22.54;40.99;100406.41;10360618;28;20120;-66
2023/07/13 22:53:08;;;;;;;3.60;0.80;;;;;;;22.53;41.08;100400.19;10361841;28;20049;-63
2023/07/13 22:58:10;;;;;;;1.90;0.95;;;;;;;22.55;41.33;100411.66;10355088;28;20072;-67
2023/07/13 23:03:15;;;;;;;1.88;0.68;;;;;;;22.28;41.90;100415.16;10356482;28;20069;-64
2023/07/13 23:08:17;;;;;;;4.10;1.42;;;;;;;22.36;41.77;100420.47;10367940;28;20108;-66
2023/07/13 23:13:21;;;;;;;2.47;0.80;;;;;;;22.32;41.62;100413.78;10355444;28;20058;-64
2023/07/13 23:18:23;;;;;;;5.28;1.27;;;;;;;22.21;42.40;100420.53;10355604;28;20053;-64